Rhapsody — WDJ6845 — position and weather

sailwx.info

Track history (hours):
 
Tides and Currents Weather Stations Pressure Air Temp Water Temp Dewpoint Dewpoint Depression Visibility Wind Speed Wind Dir Waves Ship Positions

Rhapsody

Owner: L & R Properties LP, Lincoln, NE. More information available from US FCC via Universal Licensing System and Coast Guard Vessel Documentation Center.

Last reported at 2017-Sep-27 18:57 UTC. Time now 2017-Dec-18 01:32 UTC.
Position N 48°40' W 123°24'.
Warning: this ship's position is months out of date.

Length 17 m; draft 3.3 m.

Type: Pleasure craft. MMSI: 368000780.

Date/timePositionNaut miles runAvg speedWind from/ knotsBaromVisibWave heightAir tempDewpointWater temp
2017-Sep-27 18:57N 48°40' W 123°24'0 0.0
2017-Sep-27 18:30N 48°40' W 123°24'0 0.0
2017-Sep-27 18:00N 48°40' W 123°24'0 0.0
2017-Sep-25 21:51N 48°40' W 123°24'0 0.0
2017-Sep-25 21:30N 48°40' W 123°24'0 0.0
2017-Sep-25 21:00N 48°40' W 123°24'0 0.0
2017-Sep-25 19:03N 48°40' W 123°24'0 2.2
2017-Sep-25 18:59N 48°40' W 123°24'5 7.0
2017-Sep-25 18:21N 48°39' W 123°18'2 7.2
2017-Sep-25 18:01N 48°38' W 123°14'3 6.1
2017-Sep-25 17:31N 48°37' W 123°10'1 0.5
2017-Sep-25 16:01N 48°37' W 123°09'0 0.0
2017-Sep-25 15:40N 48°37' W 123°09'0 0.0
2017-Sep-25 13:49N 48°37' W 123°09'0 0.0
2017-Sep-25 12:37N 48°37' W 123°09'0 0.0
2017-Sep-25 12:22N 48°37' W 123°09'0 0.0
2017-Sep-25 11:52N 48°37' W 123°09'0 0.0
2017-Sep-25 11:16N 48°37' W 123°09'0 0.0
2017-Sep-25 10:55N 48°37' W 123°09'0 0.0
2017-Sep-25 10:22N 48°37' W 123°09'0 0.0
2017-Sep-25 09:55N 48°37' W 123°09'0 0.0
2017-Sep-25 09:28N 48°37' W 123°09'0 0.0
2017-Sep-25 08:52N 48°37' W 123°09'0 0.0
2017-Sep-25 08:28N 48°37' W 123°09'0 0.0
2017-Sep-25 07:58N 48°37' W 123°09'0 0.0
2017-Sep-25 06:43N 48°37' W 123°09'0 0.0
2017-Sep-25 01:40N 48°37' W 123°09'0 0.0
2017-Sep-25 01:10N 48°37' W 123°09'0 0.0
2017-Sep-25 00:43N 48°37' W 123°09'0 0.0
2017-Sep-25 00:22N 48°37' W 123°09'0 0.0
2017-Sep-24 22:58N 48°37' W 123°09'0 0.0
2017-Sep-24 22:28N 48°37' W 123°09'0 0.0
2017-Sep-24 21:55N 48°37' W 123°09'0 0.0
2017-Sep-24 21:28N 48°37' W 123°09'0 0.0
2017-Sep-24 20:49N 48°37' W 123°09'0 0.0
2017-Sep-24 09:19N 48°37' W 123°09'0 0.0
2017-Sep-24 08:52N 48°37' W 123°09'0 0.0
2017-Sep-24 08:19N 48°37' W 123°09'0 0.0
2017-Sep-24 07:13N 48°37' W 123°09'0 0.0
2017-Sep-23 21:37N 48°37' W 123°09'0 0.0
2017-Sep-23 21:28N 48°37' W 123°09'0 0.0
2017-Sep-23 20:58N 48°37' W 123°09'0 0.0
2017-Sep-23 20:22N 48°37' W 123°09'0 0.0
2017-Sep-23 19:37N 48°37' W 123°09'4 0.1
2017-Sep-22 00:28N 48°40' W 123°11'2 4.7
2017-Sep-22 00:00N 48°40' W 123°14'2 3.0
2017-Sep-21 23:27N 48°41' W 123°12'4 7.3
2017-Sep-21 22:56N 48°41' W 123°06'3 7.7
2017-Sep-21 22:30N 48°41' W 123°01'4 7.9
2017-Sep-21 21:59N 48°43' W 122°57'5 8.2
2017-Sep-21 21:26N 48°44' W 122°50'4 8.3
2017-Sep-21 21:00N 48°45' W 122°44'7 7.1
2017-Sep-21 20:04N 48°41' W 122°36'1 8.0
2017-Sep-21 19:59N 48°42' W 122°35'4 7.8
2017-Sep-21 19:30N 48°44' W 122°32'  
2017-Sep-18 17:22N 48°45' W 122°46'3 8.1
2017-Sep-18 17:00N 48°44' W 122°50'4 7.0
2017-Sep-18 16:29N 48°44' W 122°55'4 8.1
2017-Sep-18 16:00N 48°41' W 122°59'3 6.0
2017-Sep-18 15:30N 48°38' W 123°02'3 6.1
2017-Sep-18 14:56N 48°38' W 123°07'2 4.8
2017-Sep-18 14:31N 48°37' W 123°10'1 1.6
2017-Sep-18 13:58N 48°37' W 123°09'0 0.0
2017-Sep-18 13:28N 48°37' W 123°09'0 0.0
2017-Sep-18 12:58N 48°37' W 123°09'0 0.0
2017-Sep-18 12:28N 48°37' W 123°09'0 0.0
2017-Sep-18 11:58N 48°37' W 123°09'0 0.0
2017-Sep-18 11:28N 48°37' W 123°09'0 0.0
2017-Sep-18 10:55N 48°37' W 123°09'0 0.0
2017-Sep-18 10:28N 48°37' W 123°09'0 0.0
2017-Sep-18 09:58N 48°37' W 123°09'0 0.0
2017-Sep-18 09:22N 48°37' W 123°09'0 0.0
2017-Sep-18 08:58N 48°37' W 123°09'0 0.0
2017-Sep-18 08:28N 48°37' W 123°09'0 0.0
2017-Sep-18 07:58N 48°37' W 123°09'0 0.0
2017-Sep-18 07:28N 48°37' W 123°09'0 0.0
2017-Sep-18 06:58N 48°37' W 123°09'0 0.0
2017-Sep-18 06:28N 48°37' W 123°09'0 0.0
2017-Sep-18 05:55N 48°37' W 123°09'0 0.0
2017-Sep-18 05:28N 48°37' W 123°09'0 0.0
2017-Sep-18 04:58N 48°37' W 123°09'0 0.0
2017-Sep-18 04:25N 48°37' W 123°09'0 0.0
2017-Sep-18 03:58N 48°37' W 123°09'0 0.0
2017-Sep-18 03:28N 48°37' W 123°09'0 0.0
2017-Sep-18 02:55N 48°37' W 123°09'0 0.0
2017-Sep-18 02:28N 48°37' W 123°09'0 0.0
2017-Sep-18 01:58N 48°37' W 123°09'0 0.0
2017-Sep-18 01:28N 48°37' W 123°09'0 0.0
2017-Sep-18 00:58N 48°37' W 123°09'0 0.0
2017-Sep-18 00:25N 48°37' W 123°09'0 0.0
2017-Sep-17 23:55N 48°37' W 123°09'0 0.0
2017-Sep-17 23:28N 48°37' W 123°09'0 0.0
2017-Sep-17 22:58N 48°37' W 123°09'0 0.0
2017-Sep-17 22:28N 48°37' W 123°09'0 0.0
2017-Sep-17 21:58N 48°37' W 123°09'0 0.0
2017-Sep-17 21:25N 48°37' W 123°09'0 0.0
2017-Sep-17 20:58N 48°37' W 123°09'0 0.0
2017-Sep-17 20:28N 48°37' W 123°09'0 0.0
2017-Sep-17 19:58N 48°37' W 123°09'0 0.0
2017-Sep-17 19:28N 48°37' W 123°09'0 0.0
2017-Sep-17 19:00N 48°37' W 123°09'  
Track history (hours):
 
Tides and Currents Weather Stations Pressure Air Temp Water Temp Dewpoint Dewpoint Depression Visibility Wind Speed Wind Dir Waves Ship Positions

Rhapsody

Owner: L & R Properties LP, Lincoln, NE. More information available from US FCC via Universal Licensing System and Coast Guard Vessel Documentation Center.

Last reported at 2017-Sep-27 18:57 UTC. Time now 2017-Dec-18 01:32 UTC.
Position N 48°40' W 123°24'.
Warning: this ship's position is months out of date.

Length 17 m; draft 3.3 m.

Type: Pleasure craft. MMSI: 368000780.

Date/timePositionNaut miles runAvg speedWind from/ knotsBaromVisibWave heightAir tempDewpointWater temp
2017-Sep-27 18:57N 48°40' W 123°24'0 0.0
2017-Sep-27 18:30N 48°40' W 123°24'0 0.0
2017-Sep-27 18:00N 48°40' W 123°24'0 0.0
2017-Sep-25 21:51N 48°40' W 123°24'0 0.0
2017-Sep-25 21:30N 48°40' W 123°24'0 0.0
2017-Sep-25 21:00N 48°40' W 123°24'0 0.0
2017-Sep-25 19:03N 48°40' W 123°24'0 2.2
2017-Sep-25 18:59N 48°40' W 123°24'5 7.0
2017-Sep-25 18:21N 48°39' W 123°18'2 7.2
2017-Sep-25 18:01N 48°38' W 123°14'3 6.1
2017-Sep-25 17:31N 48°37' W 123°10'1 0.5
2017-Sep-25 16:01N 48°37' W 123°09'0 0.0
2017-Sep-25 15:40N 48°37' W 123°09'0 0.0
2017-Sep-25 13:49N 48°37' W 123°09'0 0.0
2017-Sep-25 12:37N 48°37' W 123°09'0 0.0
2017-Sep-25 12:22N 48°37' W 123°09'0 0.0
2017-Sep-25 11:52N 48°37' W 123°09'0 0.0
2017-Sep-25 11:16N 48°37' W 123°09'0 0.0
2017-Sep-25 10:55N 48°37' W 123°09'0 0.0
2017-Sep-25 10:22N 48°37' W 123°09'0 0.0
2017-Sep-25 09:55N 48°37' W 123°09'0 0.0
2017-Sep-25 09:28N 48°37' W 123°09'0 0.0
2017-Sep-25 08:52N 48°37' W 123°09'0 0.0
2017-Sep-25 08:28N 48°37' W 123°09'0 0.0
2017-Sep-25 07:58N 48°37' W 123°09'0 0.0
2017-Sep-25 06:43N 48°37' W 123°09'0 0.0
2017-Sep-25 01:40N 48°37' W 123°09'0 0.0
2017-Sep-25 01:10N 48°37' W 123°09'0 0.0
2017-Sep-25 00:43N 48°37' W 123°09'0 0.0
2017-Sep-25 00:22N 48°37' W 123°09'0 0.0
2017-Sep-24 22:58N 48°37' W 123°09'0 0.0
2017-Sep-24 22:28N 48°37' W 123°09'0 0.0
2017-Sep-24 21:55N 48°37' W 123°09'0 0.0
2017-Sep-24 21:28N 48°37' W 123°09'0 0.0
2017-Sep-24 20:49N 48°37' W 123°09'0 0.0
2017-Sep-24 09:19N 48°37' W 123°09'0 0.0
2017-Sep-24 08:52N 48°37' W 123°09'0 0.0
2017-Sep-24 08:19N 48°37' W 123°09'0 0.0
2017-Sep-24 07:13N 48°37' W 123°09'0 0.0
2017-Sep-23 21:37N 48°37' W 123°09'0 0.0
2017-Sep-23 21:28N 48°37' W 123°09'0 0.0
2017-Sep-23 20:58N 48°37' W 123°09'0 0.0
2017-Sep-23 20:22N 48°37' W 123°09'0 0.0
2017-Sep-23 19:37N 48°37' W 123°09'4 0.1
2017-Sep-22 00:28N 48°40' W 123°11'2 4.7
2017-Sep-22 00:00N 48°40' W 123°14'2 3.0
2017-Sep-21 23:27N 48°41' W 123°12'4 7.3
2017-Sep-21 22:56N 48°41' W 123°06'3 7.7
2017-Sep-21 22:30N 48°41' W 123°01'4 7.9
2017-Sep-21 21:59N 48°43' W 122°57'5 8.2
2017-Sep-21 21:26N 48°44' W 122°50'4 8.3
2017-Sep-21 21:00N 48°45' W 122°44'7 7.1
2017-Sep-21 20:04N 48°41' W 122°36'1 8.0
2017-Sep-21 19:59N 48°42' W 122°35'4 7.8
2017-Sep-21 19:30N 48°44' W 122°32'  
2017-Sep-18 17:22N 48°45' W 122°46'3 8.1
2017-Sep-18 17:00N 48°44' W 122°50'4 7.0
2017-Sep-18 16:29N 48°44' W 122°55'4 8.1
2017-Sep-18 16:00N 48°41' W 122°59'3 6.0
2017-Sep-18 15:30N 48°38' W 123°02'3 6.1
2017-Sep-18 14:56N 48°38' W 123°07'2 4.8
2017-Sep-18 14:31N 48°37' W 123°10'1 1.6
2017-Sep-18 13:58N 48°37' W 123°09'0 0.0
2017-Sep-18 13:28N 48°37' W 123°09'0 0.0
2017-Sep-18 12:58N 48°37' W 123°09'0 0.0
2017-Sep-18 12:28N 48°37' W 123°09'0 0.0
2017-Sep-18 11:58N 48°37' W 123°09'0 0.0
2017-Sep-18 11:28N 48°37' W 123°09'0 0.0
2017-Sep-18 10:55N 48°37' W 123°09'0 0.0
2017-Sep-18 10:28N 48°37' W 123°09'0 0.0
2017-Sep-18 09:58N 48°37' W 123°09'0 0.0
2017-Sep-18 09:22N 48°37' W 123°09'0 0.0
2017-Sep-18 08:58N 48°37' W 123°09'0 0.0
2017-Sep-18 08:28N 48°37' W 123°09'0 0.0
2017-Sep-18 07:58N 48°37' W 123°09'0 0.0
2017-Sep-18 07:28N 48°37' W 123°09'0 0.0
2017-Sep-18 06:58N 48°37' W 123°09'0 0.0
2017-Sep-18 06:28N 48°37' W 123°09'0 0.0
2017-Sep-18 05:55N 48°37' W 123°09'0 0.0
2017-Sep-18 05:28N 48°37' W 123°09'0 0.0
2017-Sep-18 04:58N 48°37' W 123°09'0 0.0
2017-Sep-18 04:25N 48°37' W 123°09'0 0.0
2017-Sep-18 03:58N 48°37' W 123°09'0 0.0
2017-Sep-18 03:28N 48°37' W 123°09'0 0.0
2017-Sep-18 02:55N 48°37' W 123°09'0 0.0
2017-Sep-18 02:28N 48°37' W 123°09'0 0.0
2017-Sep-18 01:58N 48°37' W 123°09'0 0.0
2017-Sep-18 01:28N 48°37' W 123°09'0 0.0
2017-Sep-18 00:58N 48°37' W 123°09'0 0.0
2017-Sep-18 00:25N 48°37' W 123°09'0 0.0
2017-Sep-17 23:55N 48°37' W 123°09'0 0.0
2017-Sep-17 23:28N 48°37' W 123°09'0 0.0
2017-Sep-17 22:58N 48°37' W 123°09'0 0.0
2017-Sep-17 22:28N 48°37' W 123°09'0 0.0
2017-Sep-17 21:58N 48°37' W 123°09'0 0.0
2017-Sep-17 21:25N 48°37' W 123°09'0 0.0
2017-Sep-17 20:58N 48°37' W 123°09'0 0.0
2017-Sep-17 20:28N 48°37' W 123°09'0 0.0
2017-Sep-17 19:58N 48°37' W 123°09'0 0.0
2017-Sep-17 19:28N 48°37' W 123°09'0 0.0
2017-Sep-17 19:00N 48°37' W 123°09'  

Dump ship's entire track history